Time;durP1;ratioP1;P1;durP2;ratioP2;P2;SDS_P1;SDS_P2;PMS_P1;PMS_P2;Temp;Humidity;BMP_temperature;BMP_pressure;BME280_temperature;BME280_humidity;BME280_pressure;Samples;Min_cycle;Max_cycle;Signal;HPM_P1;HPM_P2
2022/12/18 00:01:41;;;;;;;4.38;1.38;;;-3.60;91.90;;;;;;6213622;23;20008;-72
2022/12/18 00:04:14;;;;;;;3.17;1.10;;;-3.60;91.90;;;;;;6213894;23;20003;-72
2022/12/18 00:06:40;;;;;;;2.00;0.93;;;-3.70;91.90;;;;;;6160730;23;20004;-72
2022/12/18 00:09:05;;;;;;;2.67;1.30;;;-3.70;91.90;;;;;;6187228;23;20001;-72
2022/12/18 00:11:31;;;;;;;3.35;1.40;;;-3.70;91.90;;;;;;6213727;23;20012;-72
2022/12/18 00:13:59;;;;;;;2.38;1.17;;;-3.70;91.90;;;;;;6187111;23;20357;-72
2022/12/18 00:16:26;;;;;;;3.30;1.20;;;-3.70;91.90;;;;;;6213451;23;20009;-72
2022/12/18 00:18:54;;;;;;;2.97;1.30;;;-3.80;91.90;;;;;;6187007;23;20005;-72
2022/12/18 00:21:21;;;;;;;4.32;1.20;;;-3.80;91.90;;;;;;6213447;23;20012;-72
2022/12/18 00:23:48;;;;;;;2.60;1.10;;;-3.80;91.90;;;;;;6214103;23;20026;-72
2022/12/18 00:26:17;;;;;;;3.25;1.23;;;-3.80;91.90;;;;;;6214030;23;20302;-72
2022/12/18 00:28:44;;;;;;;2.15;0.90;;;-3.80;91.90;;;;;;6214035;23;20062;-72
2022/12/18 00:31:13;;;;;;;3.58;1.65;;;-3.90;91.90;;;;;;6213583;23;19997;-72
2022/12/18 00:33:39;;;;;;;3.05;1.35;;;-3.90;91.90;;;;;;6187078;23;20000;-72
2022/12/18 00:36:08;;;;;;;3.13;1.20;;;-3.90;91.90;;;;;;6213480;23;19996;-72
2022/12/18 00:38:34;;;;;;;1.90;1.08;;;-4.00;91.90;;;;;;6184656;23;20334;-72
2022/12/18 00:41:00;;;;;;;3.63;1.30;;;-4.00;91.90;;;;;;6213434;23;20004;-72
2022/12/18 00:43:26;;;;;;;3.33;1.10;;;-4.00;91.90;;;;;;6185498;23;20009;-72
2022/12/18 00:45:52;;;;;;;3.05;1.20;;;-4.00;91.90;;;;;;6213961;23;20047;-72
2022/12/18 00:48:18;;;;;;;3.42;1.50;;;-4.10;91.90;;;;;;6213315;23;20058;-72
2022/12/18 00:50:44;;;;;;;1.98;1.05;;;-4.10;91.90;;;;;;6213431;23;20032;-72
2022/12/18 00:53:10;;;;;;;2.42;1.10;;;-4.10;91.90;;;;;;6213375;23;19996;-72
2022/12/18 00:55:37;;;;;;;2.47;1.40;;;-4.20;91.90;;;;;;6214036;23;20035;-72
2022/12/18 00:58:03;;;;;;;3.13;1.20;;;-4.10;91.90;;;;;;6213613;23;20842;-72
2022/12/18 01:00:29;;;;;;;4.47;1.20;;;-4.20;91.90;;;;;;6213532;23;20311;-72
2022/12/18 01:02:54;;;;;;;1.70;0.82;;;-4.30;91.80;;;;;;6213450;23;20425;-72
2022/12/18 01:05:20;;;;;;;2.55;1.20;;;-4.20;91.90;;;;;;6184514;23;20445;-72
2022/12/18 01:07:45;;;;;;;3.17;1.35;;;-4.30;91.90;;;;;;6212882;23;20032;-72
2022/12/18 01:10:12;;;;;;;2.88;1.45;;;-4.30;91.90;;;;;;6213146;23;20000;-72
2022/12/18 01:12:38;;;;;;;2.53;1.35;;;-4.30;91.90;;;;;;6213406;23;20026;-72
2022/12/18 01:15:05;;;;;;;3.17;1.30;;;-4.30;91.90;;;;;;6186731;23;20452;-72
2022/12/18 01:17:31;;;;;;;2.13;0.73;;;-4.30;91.90;;;;;;6186679;23;20079;-72
2022/12/18 01:19:57;;;;;;;4.00;1.33;;;-4.30;91.90;;;;;;6213340;23;20031;-72
2022/12/18 01:22:23;;;;;;;3.90;1.25;;;-4.30;91.90;;;;;;6212666;23;20015;-72
2022/12/18 01:24:48;;;;;;;1.92;0.93;;;-4.30;91.90;;;;;;6185319;23;20032;-72
2022/12/18 01:27:14;;;;;;;4.47;1.15;;;-4.40;92.10;;;;;;6213477;23;20444;-72
2022/12/18 01:29:40;;;;;;;2.92;1.10;;;-4.30;91.80;;;;;;6213233;23;20004;-72
2022/12/18 01:32:06;;;;;;;3.67;1.33;;;-4.40;91.80;;;;;;6186119;23;20004;-71
2022/12/18 01:34:31;;;;;;;3.55;1.30;;;-4.40;91.80;;;;;;6212750;23;20009;-72
2022/12/18 01:36:57;;;;;;;3.33;1.48;;;-4.40;91.80;;;;;;6210426;23;20001;-72
2022/12/18 01:39:22;;;;;;;2.20;1.10;;;-4.40;91.80;;;;;;6213316;23;20012;-71
2022/12/18 01:45:02;;;;;;;2.70;1.30;;;-4.40;91.80;;;;;;6212794;23;20013;-71
2022/12/18 01:47:49;;;;;;;2.60;0.98;;;-4.50;91.80;;;;;;6189706;23;20113;-71
2022/12/18 01:50:19;;;;;;;3.60;1.17;;;-4.40;91.80;;;;;;6187428;23;20004;-71
2022/12/18 01:52:53;;;;;;;3.03;1.17;;;-4.60;91.80;;;;;;6210477;23;20059;-71
2022/12/18 01:55:23;;;;;;;3.20;1.10;;;-4.50;91.80;;;;;;6183188;23;20005;-71
2022/12/18 01:57:53;;;;;;;2.72;1.10;;;-4.50;91.80;;;;;;6212627;23;20345;-71
2022/12/18 02:00:22;;;;;;;2.92;1.10;;;-4.60;91.80;;;;;;6213010;23;20063;-71
2022/12/18 02:02:48;;;;;;;2.85;0.98;;;-4.60;91.80;;;;;;6213208;23;20008;-71
2022/12/18 02:05:18;;;;;;;1.88;1.08;;;-4.70;91.70;;;;;;6212551;23;20118;-71
2022/12/18 02:07:59;;;;;;;2.47;0.93;;;-4.60;91.80;;;;;;6213190;23;19996;-71
2022/12/18 02:10:40;;;;;;;3.15;1.00;;;-4.60;91.80;;;;;;6208711;23;20880;-71
2022/12/18 02:13:20;;;;;;;1.98;1.05;;;-4.80;91.80;;;;;;6209809;23;20441;-71
2022/12/18 02:16:14;;;;;;;4.43;1.27;;;-4.70;91.80;;;;;;6180132;23;20016;-71
2022/12/18 02:18:45;;;;;;;3.15;1.20;;;-4.60;91.90;;;;;;6209113;23;20015;-71
2022/12/18 02:21:46;;;;;;;3.47;1.05;;;-4.70;91.80;;;;;;6211422;23;20005;-72
2022/12/18 02:24:33;;;;;;;2.05;0.90;;;-4.70;91.80;;;;;;6186687;23;20966;-71
2022/12/18 02:27:04;;;;;;;2.78;0.93;;;-4.70;91.80;;;;;;6210246;23;20001;-71
2022/12/18 02:29:37;;;;;;;2.30;1.08;;;-4.80;91.80;;;;;;6212691;23;20429;-71
2022/12/18 02:32:09;;;;;;;1.75;0.88;;;-4.80;91.80;;;;;;6179106;23;20433;-71
2022/12/18 02:34:38;;;;;;;3.65;1.38;;;-4.80;91.70;;;;;;6210262;23;20375;-71
2022/12/18 02:37:08;;;;;;;2.58;1.15;;;-4.90;91.70;;;;;;6239318;23;20004;-71
2022/12/18 02:39:37;;;;;;;2.80;1.10;;;-4.90;91.70;;;;;;6244016;23;20000;-71
2022/12/18 02:42:07;;;;;;;3.13;1.30;;;-4.90;91.70;;;;;;6244440;23;20084;-72
2022/12/18 02:44:34;;;;;;;5.15;1.25;;;-4.90;91.70;;;;;;6218338;23;20032;-71
2022/12/18 02:47:00;;;;;;;4.00;1.02;;;-4.90;91.80;;;;;;6217921;23;20000;-71
2022/12/18 02:49:52;;;;;;;3.13;1.23;;;-4.90;91.80;;;;;;6244331;23;19996;-71
2022/12/18 02:52:31;;;;;;;;;;;-5.00;91.80;;;;;;6244736;23;20439;-71
2022/12/18 02:55:07;;;;;;;2.42;0.98;;;-4.90;91.80;;;;;;6244425;23;19899;-71
2022/12/18 02:57:42;;;;;;;2.35;0.90;;;-5.00;91.70;;;;;;6244130;23;20004;-71
2022/12/18 03:00:14;;;;;;;2.22;1.00;;;-5.00;91.70;;;;;;6243719;23;20439;-71
2022/12/18 03:02:56;;;;;;;;;;;-5.10;91.70;;;;;;6244476;23;20019;-71
2022/12/18 03:05:30;;;;;;;1.92;0.77;;;-5.00;91.70;;;;;;6243671;23;19935;-71
2022/12/18 03:08:08;;;;;;;2.40;0.90;;;-5.00;91.70;;;;;;6243501;23;20011;-71
2022/12/18 03:10:40;;;;;;;2.88;1.00;;;-5.10;91.70;;;;;;6243784;23;20058;-71
2022/12/18 03:13:11;;;;;;;2.08;0.90;;;-5.10;91.70;;;;;;6243982;23;20444;-71
2022/12/18 03:15:42;;;;;;;4.05;1.13;;;-5.10;91.70;;;;;;6216929;23;20011;-71
2022/12/18 03:18:13;;;;;;;1.70;0.77;;;-5.10;91.70;;;;;;6217151;23;20436;-71
2022/12/18 03:20:41;;;;;;;3.30;1.03;;;-5.00;91.70;;;;;;6244059;23;20099;-71
2022/12/18 03:23:13;;;;;;;3.15;0.90;;;-5.10;91.70;;;;;;6243561;23;20262;-71
2022/12/18 03:25:41;;;;;;;1.80;0.90;;;-5.10;91.70;;;;;;6244015;23;20007;-71
2022/12/18 03:28:12;;;;;;;2.45;0.80;;;-5.20;91.70;;;;;;6243745;23;20030;-71
2022/12/18 03:30:41;;;;;;;2.33;0.73;;;-5.20;91.70;;;;;;6212119;23;20492;-71
2022/12/18 03:33:12;;;;;;;2.08;1.13;;;-5.20;91.70;;;;;;6242049;23;20000;-71
2022/12/18 03:35:41;;;;;;;3.20;0.93;;;-5.20;91.70;;;;;;6216841;23;20000;-71
2022/12/18 03:38:09;;;;;;;2.55;0.90;;;-5.20;91.70;;;;;;6217424;23;20020;-71
2022/12/18 03:40:56;;;;;;;3.50;1.38;;;-5.20;91.70;;;;;;6217235;23;20052;-71
2022/12/18 03:43:48;;;;;;;3.10;1.10;;;-5.20;91.70;;;;;;6216448;23;20083;-71
2022/12/18 03:46:27;;;;;;;1.88;0.80;;;-5.10;91.70;;;;;;6223385;23;20074;-71
2022/12/18 03:49:00;;;;;;;3.53;1.00;;;-5.20;91.70;;;;;;6243575;23;20000;-71
2022/12/18 03:51:36;;;;;;;1.52;0.70;;;-5.20;91.70;;;;;;6243714;23;20074;-71
2022/12/18 03:54:04;;;;;;;3.53;1.20;;;-5.20;91.70;;;;;;6217448;23;20043;-71
2022/12/18 03:56:35;;;;;;;2.65;0.80;;;-5.20;91.70;;;;;;6244497;23;20016;-71
2022/12/18 03:59:02;;;;;;;1.35;0.70;;;-5.30;91.70;;;;;;6209220;23;20067;-71
2022/12/18 04:01:34;;;;;;;2.15;0.80;;;-5.30;91.70;;;;;;6186767;23;20009;-71
2022/12/18 04:04:01;;;;;;;3.65;1.08;;;-5.30;91.70;;;;;;6216981;23;20012;-71
2022/12/18 04:06:29;;;;;;;2.53;1.08;;;-5.30;91.60;;;;;;6191933;23;20428;-71
2022/12/18 04:08:55;;;;;;;2.67;1.00;;;-5.20;91.70;;;;;;6243470;23;19997;-71
2022/12/18 04:11:20;;;;;;;2.63;1.00;;;-5.30;91.60;;;;;;6243402;23;20008;-71
2022/12/18 04:13:46;;;;;;;2.33;0.75;;;-5.30;91.60;;;;;;6243632;23;20069;-71
2022/12/18 04:16:11;;;;;;;1.00;0.60;;;-5.30;91.60;;;;;;6243353;23;20000;-71
2022/12/18 04:18:37;;;;;;;2.15;0.88;;;-5.40;91.60;;;;;;6216655;23;20028;-71
2022/12/18 04:21:03;;;;;;;2.25;0.82;;;-5.40;91.60;;;;;;6216597;23;20498;-71
2022/12/18 04:23:29;;;;;;;2.58;0.70;;;-5.40;91.60;;;;;;6243507;23;20084;-73
2022/12/18 04:25:54;;;;;;;2.75;1.20;;;-5.40;91.60;;;;;;6243257;23;20824;-73
2022/12/18 04:28:20;;;;;;;1.55;0.80;;;-5.40;91.60;;;;;;6243399;23;20023;-73
2022/12/18 04:30:49;;;;;;;1.83;1.05;;;-5.40;91.60;;;;;;6216965;23;19996;-72
2022/12/18 04:33:18;;;;;;;1.55;0.80;;;-5.40;91.60;;;;;;6243386;23;20004;-72
2022/12/18 04:35:44;;;;;;;2.55;0.93;;;-5.40;91.60;;;;;;6243310;23;20050;-72
2022/12/18 04:38:10;;;;;;;1.77;0.80;;;-5.40;91.60;;;;;;6217074;23;20436;-72
2022/12/18 04:40:37;;;;;;;1.02;0.60;;;-5.30;91.60;;;;;;6243530;23;20000;-72
2022/12/18 04:43:03;;;;;;;1.75;0.80;;;-5.40;91.60;;;;;;6212033;23;20009;-72
2022/12/18 04:45:30;;;;;;;2.60;1.08;;;-5.40;91.60;;;;;;6243180;23;20005;-72
2022/12/18 04:47:58;;;;;;;1.67;0.82;;;-5.40;91.60;;;;;;6243121;23;20420;-72
2022/12/18 04:50:24;;;;;;;1.88;0.85;;;-5.40;91.60;;;;;;6243640;23;20365;-72
2022/12/18 04:52:49;;;;;;;2.13;0.90;;;-5.50;91.60;;;;;;6243864;23;20026;-72
2022/12/18 04:55:15;;;;;;;2.05;0.90;;;-5.40;91.60;;;;;;6243459;23;20000;-71
2022/12/18 04:57:41;;;;;;;1.83;0.77;;;-5.40;91.60;;;;;;6243279;23;20062;-72
2022/12/18 05:00:07;;;;;;;1.75;0.70;;;-5.40;91.60;;;;;;6243717;23;20463;-72
2022/12/18 05:02:33;;;;;;;2.65;0.70;;;-5.30;91.60;;;;;;6243546;23;20305;-72
2022/12/18 05:04:58;;;;;;;2.60;0.90;;;-5.40;91.60;;;;;;6243788;23;20135;-71
2022/12/18 05:07:24;;;;;;;1.60;0.80;;;-5.40;91.60;;;;;;6216671;23;20424;-72
2022/12/18 05:09:49;;;;;;;2.50;0.93;;;-5.40;91.60;;;;;;6244058;23;20324;-72
2022/12/18 05:12:15;;;;;;;1.95;0.93;;;-5.40;91.60;;;;;;6244141;23;20341;-72
2022/12/18 05:14:41;;;;;;;1.33;0.65;;;-5.40;91.60;;;;;;6244065;23;20079;-72
2022/12/18 05:17:07;;;;;;;1.30;0.80;;;-5.50;91.50;;;;;;6244035;23;20087;-72
2022/12/18 05:19:32;;;;;;;1.95;0.98;;;-5.50;91.50;;;;;;6240419;23;20428;-72
2022/12/18 05:21:58;;;;;;;2.10;0.70;;;-5.50;91.60;;;;;;6243325;23;20456;-72
2022/12/18 05:24:24;;;;;;;1.88;0.80;;;-5.50;91.60;;;;;;6216645;23;20012;-72
2022/12/18 05:26:49;;;;;;;2.25;0.77;;;-5.50;91.60;;;;;;6244249;23;20030;-73
2022/12/18 05:29:15;;;;;;;2.33;0.80;;;-5.50;91.60;;;;;;6216832;23;20011;-71
2022/12/18 05:31:40;;;;;;;1.27;0.80;;;-5.60;91.60;;;;;;6239663;23;20000;-73
2022/12/18 05:34:06;;;;;;;1.88;0.60;;;-5.60;91.60;;;;;;6212362;23;20501;-71
2022/12/18 05:36:32;;;;;;;2.00;1.00;;;-5.60;91.60;;;;;;6239613;23;20008;-71
2022/12/18 05:38:58;;;;;;;1.73;0.85;;;-5.60;91.60;;;;;;6191694;23;20004;-72
2022/12/18 05:41:23;;;;;;;1.70;0.95;;;-5.60;91.60;;;;;;6243501;23;20508;-72
2022/12/18 05:43:49;;;;;;;2.28;0.90;;;-5.60;91.60;;;;;;6216287;23;20084;-73
2022/12/18 05:46:17;;;;;;;1.55;0.70;;;-5.60;91.60;;;;;;6216825;23;20001;-73
2022/12/18 05:48:44;;;;;;;1.67;0.80;;;-5.60;91.60;;;;;;6243447;23;20001;-73
2022/12/18 05:51:14;;;;;;;1.88;1.00;;;-5.60;91.60;;;;;;6243480;23;19996;-73
2022/12/18 05:53:40;;;;;;;1.85;0.88;;;-5.60;91.60;;;;;;6243405;23;20034;-71
2022/12/18 05:56:09;;;;;;;0.98;0.70;;;-5.60;91.60;;;;;;6240268;23;20001;-73
2022/12/18 05:58:35;;;;;;;2.58;0.90;;;-5.60;91.50;;;;;;6213515;23;20329;-73
2022/12/18 06:01:14;;;;;;;1.15;0.55;;;-5.60;91.50;;;;;;6243128;23;20035;-73
2022/12/18 06:03:40;;;;;;;2.35;1.05;;;-5.60;91.50;;;;;;6243985;23;20039;-71
2022/12/18 06:06:14;;;;;;;2.15;0.93;;;-5.60;91.50;;;;;;6243434;23;20008;-71
2022/12/18 06:08:39;;;;;;;2.70;0.75;;;-5.60;91.50;;;;;;6243188;23;20000;-71
2022/12/18 06:11:05;;;;;;;1.60;0.85;;;-5.60;91.50;;;;;;6243859;23;20131;-71
2022/12/18 06:13:31;;;;;;;1.67;0.90;;;-5.60;91.50;;;;;;6216026;23;20007;-73
2022/12/18 06:15:56;;;;;;;1.25;0.52;;;-5.60;91.50;;;;;;6243948;23;20082;-71
2022/12/18 06:18:22;;;;;;;1.15;0.68;;;-5.60;91.50;;;;;;6243302;23;20038;-71
2022/12/18 06:20:56;;;;;;;2.05;0.80;;;-5.60;91.50;;;;;;6243329;23;20428;-73
2022/12/18 06:23:21;;;;;;;1.23;0.68;;;-5.60;91.50;;;;;;6243932;23;20022;-73
2022/12/18 06:25:47;;;;;;;1.48;0.75;;;-5.60;91.50;;;;;;6243034;23;20004;-73
2022/12/18 06:28:12;;;;;;;2.55;1.00;;;-5.60;91.50;;;;;;6216399;23;20000;-73
2022/12/18 06:30:38;;;;;;;1.80;0.80;;;-5.50;91.50;;;;;;6243045;23;20002;-73
2022/12/18 06:33:04;;;;;;;0.90;0.50;;;-5.50;91.40;;;;;;6243082;23;20005;-73
2022/12/18 06:35:29;;;;;;;1.27;0.63;;;-5.50;91.40;;;;;;6243384;23;20016;-71
2022/12/18 06:37:55;;;;;;;2.70;0.85;;;-5.50;91.40;;;;;;6243086;23;20446;-73
2022/12/18 06:40:21;;;;;;;1.65;0.80;;;-5.60;91.40;;;;;;6243675;23;20070;-73
2022/12/18 06:42:46;;;;;;;1.38;0.75;;;-5.50;91.40;;;;;;6243334;23;20008;-73
2022/12/18 06:45:15;;;;;;;1.25;0.65;;;-5.50;91.40;;;;;;6243706;23;19996;-73
2022/12/18 06:47:41;;;;;;;1.42;0.68;;;-5.50;91.40;;;;;;6243644;23;20079;-73
2022/12/18 06:50:07;;;;;;;1.52;0.90;;;-5.50;91.40;;;;;;6216710;23;20036;-71
2022/12/18 06:52:33;;;;;;;1.20;0.75;;;-5.40;91.40;;;;;;6243047;23;20384;-73
2022/12/18 06:55:00;;;;;;;2.38;0.85;;;-5.40;91.40;;;;;;6243328;23;20024;-71
2022/12/18 06:57:26;;;;;;;0.95;0.50;;;-5.40;91.40;;;;;;6212807;23;20005;-71
2022/12/18 06:59:52;;;;;;;1.35;0.70;;;-5.50;91.30;;;;;;6191087;23;20003;-71
2022/12/18 07:02:17;;;;;;;1.15;0.52;;;-5.40;91.30;;;;;;6243309;23;20753;-71
2022/12/18 07:04:43;;;;;;;1.58;0.93;;;-5.40;91.30;;;;;;6243377;23;20027;-71
2022/12/18 07:07:08;;;;;;;1.98;1.10;;;-5.40;91.30;;;;;;6243368;23;20039;-73
2022/12/18 07:09:34;;;;;;;1.25;0.68;;;-5.40;91.30;;;;;;6242771;23;19996;-73
2022/12/18 07:12:00;;;;;;;1.25;0.70;;;-5.50;91.30;;;;;;6242725;23;20004;-71
2022/12/18 07:14:25;;;;;;;2.25;0.82;;;-5.40;91.30;;;;;;6216019;23;20024;-73
2022/12/18 07:16:51;;;;;;;2.08;0.90;;;-5.40;91.40;;;;;;6216716;23;20000;-71
2022/12/18 07:19:17;;;;;;;1.85;0.80;;;-5.40;91.40;;;;;;6243572;23;20004;-71
2022/12/18 07:21:42;;;;;;;1.52;0.77;;;-5.50;91.30;;;;;;6239076;23;20005;-71
2022/12/18 07:24:08;;;;;;;1.23;0.60;;;-5.40;91.30;;;;;;6216833;23;20000;-71
2022/12/18 07:26:33;;;;;;;1.50;0.60;;;-5.40;91.30;;;;;;6244594;23;19996;-72
2022/12/18 07:28:59;;;;;;;1.70;0.85;;;-5.40;91.30;;;;;;6244153;23;20000;-73
2022/12/18 07:31:26;;;;;;;1.52;0.60;;;-5.30;91.30;;;;;;6244687;23;20004;-73
2022/12/18 07:33:52;;;;;;;1.95;0.90;;;-5.40;91.30;;;;;;6243906;23;20011;-73
2022/12/18 07:36:18;;;;;;;1.50;0.77;;;-5.30;91.30;;;;;;6244274;23;20004;-74
2022/12/18 07:38:47;;;;;;;1.95;0.70;;;-5.30;91.30;;;;;;6244414;23;20009;-74
2022/12/18 07:41:13;;;;;;;1.33;0.63;;;-5.40;91.30;;;;;;6217315;23;20408;-71
2022/12/18 07:43:40;;;;;;;1.73;0.70;;;-5.40;91.30;;;;;;6244177;23;20004;-71
2022/12/18 07:46:06;;;;;;;0.70;0.40;;;-5.30;91.30;;;;;;6244654;23;20446;-71
2022/12/18 07:48:32;;;;;;;2.00;0.70;;;-5.40;91.30;;;;;;6243954;23;20020;-71
2022/12/18 07:51:00;;;;;;;1.27;0.80;;;-5.30;91.30;;;;;;6217002;23;20015;-71
2022/12/18 07:53:26;;;;;;;1.67;0.80;;;-5.30;91.30;;;;;;6192300;23;20092;-71
2022/12/18 07:55:57;;;;;;;2.38;0.90;;;-5.30;91.30;;;;;;6244262;23;20297;-71
2022/12/18 07:58:23;;;;;;;1.42;0.60;;;-5.30;91.30;;;;;;6243858;23;20004;-71
2022/12/18 08:00:48;;;;;;;1.65;0.52;;;-5.30;91.20;;;;;;6243873;23;20345;-71
2022/12/18 08:03:14;;;;;;;1.75;0.55;;;-5.20;91.30;;;;;;6243643;23;20038;-71
2022/12/18 08:05:40;;;;;;;0.43;0.40;;;-5.20;91.20;;;;;;6244298;23;20030;-71
2022/12/18 08:08:05;;;;;;;2.10;0.80;;;-5.10;91.20;;;;;;6216933;23;19997;-71
2022/12/18 08:10:31;;;;;;;1.15;0.50;;;-5.10;91.20;;;;;;6244574;23;19993;-73
2022/12/18 08:12:57;;;;;;;1.08;0.40;;;-5.00;91.20;;;;;;6244118;23;20001;-71
2022/12/18 08:15:22;;;;;;;1.33;0.55;;;-5.00;91.20;;;;;;6243227;23;20375;-73
2022/12/18 08:17:48;;;;;;;1.88;0.73;;;-4.90;91.20;;;;;;6243409;23;20038;-71
2022/12/18 08:20:14;;;;;;;1.55;0.60;;;-4.80;91.20;;;;;;6243917;23;20429;-71
2022/12/18 08:22:41;;;;;;;1.30;0.68;;;-4.80;91.10;;;;;;6216438;23;20032;-71
2022/12/18 08:25:08;;;;;;;1.00;0.50;;;-4.70;91.10;;;;;;6215063;23;20088;-73
2022/12/18 08:27:33;;;;;;;1.38;0.70;;;-4.60;91.10;;;;;;6243380;23;20012;-71
2022/12/18 08:29:59;;;;;;;1.85;0.60;;;-4.60;91.00;;;;;;6243852;23;20000;-71
2022/12/18 08:32:26;;;;;;;1.30;0.63;;;-4.50;91.00;;;;;;6243874;23;20000;-71
2022/12/18 08:34:52;;;;;;;1.75;0.70;;;-4.40;91.00;;;;;;6244064;23;20004;-71
2022/12/18 08:37:17;;;;;;;2.63;0.90;;;-4.40;90.90;;;;;;6244096;23;20015;-71
2022/12/18 08:39:43;;;;;;;1.67;0.60;;;-4.10;91.00;;;;;;6215548;23;20005;-71
2022/12/18 08:44:49;;;;;;;1.40;0.60;;;-4.10;90.80;;;;;;6243690;23;20020;-71
2022/12/18 08:47:15;;;;;;;0.57;0.30;;;-4.00;90.70;;;;;;6215828;23;20009;-71
2022/12/18 08:49:41;;;;;;;1.25;0.57;;;-4.00;90.70;;;;;;6214599;23;20012;-71
2022/12/18 08:52:06;;;;;;;0.52;0.45;;;-3.80;90.70;;;;;;6244179;23;20012;-71
2022/12/18 08:54:32;;;;;;;0.38;0.32;;;-3.70;90.60;;;;;;6243471;23;20012;-72
2022/12/18 08:56:58;;;;;;;0.70;0.40;;;-3.60;90.60;;;;;;6243511;23;20015;-71
2022/12/18 08:59:23;;;;;;;0.75;0.50;;;-3.60;90.60;;;;;;6243610;23;20019;-71
2022/12/18 09:01:49;;;;;;;1.08;0.47;;;-3.50;90.60;;;;;;6243669;23;20047;-71
2022/12/18 09:04:15;;;;;;;1.20;0.50;;;-3.50;90.50;;;;;;6244004;23;20003;-71
2022/12/18 09:06:40;;;;;;;0.95;0.40;;;-3.50;90.50;;;;;;6180972;23;20009;-71
2022/12/18 09:09:06;;;;;;;1.48;0.60;;;-3.40;90.50;;;;;;6186708;23;20020;-71
2022/12/18 09:11:33;;;;;;;0.90;0.40;;;-3.30;90.50;;;;;;6222904;23;20031;-71
2022/12/18 09:14:00;;;;;;;1.15;0.60;;;-3.20;90.50;;;;;;6213482;23;20101;-70
2022/12/18 09:16:28;;;;;;;0.75;0.50;;;-3.20;90.40;;;;;;6213670;23;20020;-71
2022/12/18 09:18:59;;;;;;;1.30;0.60;;;-3.10;90.40;;;;;;6213451;23;20012;-72
2022/12/18 09:21:26;;;;;;;1.20;0.57;;;-3.00;90.40;;;;;;6213782;23;20095;-72
2022/12/18 09:23:53;;;;;;;1.38;0.50;;;-2.90;90.40;;;;;;6213456;23;20020;-72
2022/12/18 09:26:20;;;;;;;1.15;0.40;;;-2.90;90.30;;;;;;6186969;23;20381;-72
2022/12/18 09:28:45;;;;;;;1.38;0.70;;;-2.90;90.30;;;;;;6213384;23;19997;-72
2022/12/18 09:31:15;;;;;;;1.30;0.60;;;-2.70;90.30;;;;;;6186698;23;20004;-72
2022/12/18 09:33:41;;;;;;;0.77;0.50;;;-2.60;90.20;;;;;;6213702;23;20000;-72
2022/12/18 09:36:09;;;;;;;1.00;0.63;;;-2.60;90.20;;;;;;6213855;23;20009;-73
2022/12/18 09:38:35;;;;;;;1.50;0.70;;;-2.50;90.20;;;;;;6213237;23;20032;-72
2022/12/18 09:41:17;;;;;;;2.15;0.70;;;-2.50;90.20;;;;;;6186135;23;20059;-72
2022/12/18 09:43:48;;;;;;;0.95;0.63;;;-2.30;90.20;;;;;;6206339;23;20005;-72
2022/12/18 09:46:21;;;;;;;2.20;0.60;;;-2.30;90.20;;;;;;6186675;23;20005;-72
2022/12/18 09:48:51;;;;;;;1.50;0.70;;;-2.30;90.10;;;;;;6188290;23;20310;-72
2022/12/18 09:51:22;;;;;;;1.38;0.45;;;-2.10;90.10;;;;;;6184053;23;20005;-72
2022/12/18 09:53:55;;;;;;;1.15;0.50;;;-2.20;90.10;;;;;;6161965;23;20429;-72
2022/12/18 09:56:22;;;;;;;1.05;0.60;;;-2.10;90.10;;;;;;6211575;23;20309;-72
2022/12/18 09:58:59;;;;;;;0.80;0.50;;;-2.10;90.00;;;;;;6184059;23;20005;-72
2022/12/18 10:01:27;;;;;;;1.10;0.52;;;-2.00;90.10;;;;;;6179198;23;20009;-72
2022/12/18 10:03:54;;;;;;;0.77;0.47;;;-1.90;90.10;;;;;;6213164;23;20001;-73
2022/12/18 10:06:31;;;;;;;1.30;0.60;;;-2.00;90.00;;;;;;6186469;23;20452;-72
2022/12/18 10:09:28;;;;;;;1.05;0.50;;;-1.90;90.00;;;;;;6182282;23;20461;-72
2022/12/18 10:12:21;;;;;;;1.42;0.63;;;-1.80;90.10;;;;;;6212965;23;20146;-72
2022/12/18 10:14:55;;;;;;;0.32;0.22;;;-1.80;90.10;;;;;;6212765;23;20000;-72
2022/12/18 10:17:45;;;;;;;1.30;0.47;;;-1.80;90.30;;;;;;6210787;23;20350;-72
2022/12/18 10:20:29;;;;;;;1.35;0.68;;;-1.70;90.00;;;;;;6209986;23;20004;-72
2022/12/18 10:23:24;;;;;;;1.58;0.60;;;-1.60;90.00;;;;;;6187703;23;20008;-72
2022/12/18 10:26:03;;;;;;;0.47;0.30;;;-1.60;90.00;;;;;;6212171;23;20000;-73
2022/12/18 10:28:31;;;;;;;0.75;0.68;;;-1.50;90.00;;;;;;6241329;23;20004;-72
2022/12/18 10:30:58;;;;;;;1.70;0.50;;;-1.30;90.00;;;;;;6190214;23;20445;-73
2022/12/18 10:33:28;;;;;;;1.50;0.50;;;-1.40;90.00;;;;;;6243480;23;20004;-73
2022/12/18 10:35:54;;;;;;;1.05;0.65;;;-1.30;90.00;;;;;;6243228;23;20057;-72
2022/12/18 10:38:27;;;;;;;0.80;0.40;;;-1.20;90.00;;;;;;6243228;23;20020;-73
2022/12/18 10:40:57;;;;;;;0.90;0.47;;;-1.10;90.00;;;;;;6191247;23;20004;-73
2022/12/18 10:43:32;;;;;;;1.73;0.52;;;-1.20;89.90;;;;;;6242920;23;20389;-73
2022/12/18 10:46:15;;;;;;;0.60;0.45;;;-1.20;89.90;;;;;;6217196;23;20008;-73
2022/12/18 10:48:52;;;;;;;0.70;0.50;;;-1.10;89.80;;;;;;6243461;23;20041;-73
2022/12/18 10:51:30;;;;;;;0.82;0.43;;;-1.00;89.80;;;;;;6215936;23;20031;-72
2022/12/18 10:54:06;;;;;;;1.20;0.60;;;-1.00;89.80;;;;;;6242943;23;19997;-73
2022/12/18 10:56:34;;;;;;;1.02;0.60;;;-1.00;89.70;;;;;;6216161;23;20012;-73
2022/12/18 10:59:03;;;;;;;1.15;0.65;;;-0.90;89.70;;;;;;6244979;23;20004;-73
2022/12/18 11:01:55;;;;;;;0.50;0.45;;;-0.70;89.80;;;;;;6244803;23;20392;-71
2022/12/18 11:04:26;;;;;;;0.90;0.52;;;-0.80;89.70;;;;;;6244771;23;20012;-73
2022/12/18 11:06:56;;;;;;;0.75;0.60;;;-0.70;89.70;;;;;;6244520;23;19996;-73
2022/12/18 11:09:24;;;;;;;1.25;0.52;;;-0.70;89.70;;;;;;6193233;23;20087;-73
2022/12/18 11:11:53;;;;;;;1.83;0.70;;;-0.70;89.60;;;;;;6244453;23;20004;-73
2022/12/18 11:14:24;;;;;;;1.17;0.70;;;-0.60;89.70;;;;;;6244234;23;20015;-73
2022/12/18 11:16:51;;;;;;;1.53;0.60;;;-0.60;89.60;;;;;;6244657;23;20323;-73
2022/12/18 11:19:31;;;;;;;0.98;0.60;;;-0.60;89.60;;;;;;6218600;23;20027;-73
2022/12/18 11:21:57;;;;;;;1.48;0.70;;;-0.50;89.60;;;;;;6245137;23;20008;-73
2022/12/18 11:24:31;;;;;;;0.85;0.60;;;-0.50;89.60;;;;;;6217269;23;20032;-73
2022/12/18 11:27:01;;;;;;;1.10;0.63;;;-0.40;89.60;;;;;;6244273;23;20486;-73
2022/12/18 11:29:37;;;;;;;1.38;0.70;;;-0.40;89.60;;;;;;6214311;23;20329;-73
2022/12/18 11:32:28;;;;;;;0.88;0.60;;;-0.40;89.50;;;;;;6244496;23;20008;-73
2022/12/18 11:35:02;;;;;;;1.10;0.70;;;-0.30;89.50;;;;;;6244895;23;20004;-73
2022/12/18 11:37:29;;;;;;;0.90;0.50;;;-0.30;89.50;;;;;;6244233;23;20107;-73
2022/12/18 11:40:01;;;;;;;1.50;0.57;;;-0.20;89.40;;;;;;6217500;23;20361;-73
2022/12/18 11:42:39;;;;;;;0.88;0.60;;;-0.20;89.40;;;;;;6214147;23;20020;-73
2022/12/18 11:45:29;;;;;;;1.02;0.47;;;-0.10;89.40;;;;;;6244581;23;20004;-73
2022/12/18 11:48:01;;;;;;;1.17;0.60;;;-0.10;89.40;;;;;;6222355;23;20001;-74
2022/12/18 11:50:42;;;;;;;1.23;0.65;;;-0.10;89.30;;;;;;6217201;23;20437;-74
2022/12/18 11:53:11;;;;;;;1.40;0.68;;;0.00;89.40;;;;;;6244487;23;20008;-74
2022/12/18 11:55:53;;;;;;;1.45;0.60;;;0.00;89.20;;;;;;6238600;23;20015;-74
2022/12/18 11:58:38;;;;;;;1.30;0.95;;;0.00;89.20;;;;;;6217350;23;20062;-74
2022/12/18 12:01:35;;;;;;;1.42;0.75;;;0.00;89.20;;;;;;6244846;23;20022;-74
2022/12/18 12:04:19;;;;;;;1.05;0.70;;;0.10;89.10;;;;;;6200947;23;20035;-73
2022/12/18 12:07:19;;;;;;;1.20;0.60;;;0.20;89.60;;;;;;6219614;23;20000;-74
2022/12/18 12:10:03;;;;;;;1.33;0.75;;;0.20;89.00;;;;;;6224813;23;20000;-73
2022/12/18 12:12:49;;;;;;;1.67;0.80;;;0.20;89.00;;;;;;6243924;23;20004;-74
2022/12/18 12:15:50;;;;;;;1.35;0.68;;;0.20;89.00;;;;;;6243935;23;20024;-74
2022/12/18 12:18:34;;;;;;;1.42;0.70;;;0.20;89.00;;;;;;6217326;23;20039;-74
2022/12/18 12:21:20;;;;;;;1.27;0.70;;;0.30;89.00;;;;;;6228711;23;20040;-73
2022/12/18 12:24:10;;;;;;;1.33;0.63;;;0.30;88.90;;;;;;6182544;23;20083;-74
2022/12/18 12:26:45;;;;;;;0.95;0.60;;;0.30;88.90;;;;;;6211440;23;20059;-73
2022/12/18 12:29:28;;;;;;;1.63;0.77;;;0.30;88.90;;;;;;6212357;23;20009;-74
2022/12/18 12:32:33;;;;;;;0.80;0.65;;;0.40;89.00;;;;;;6186986;23;20008;-74
2022/12/18 12:35:31;;;;;;;1.00;0.65;;;0.40;88.90;;;;;;6211894;23;20059;-74
2022/12/18 12:38:21;;;;;;;1.52;0.65;;;0.40;88.90;;;;;;6186841;23;20100;-74
2022/12/18 12:40:53;;;;;;;0.88;0.60;;;0.40;88.90;;;;;;6190846;23;20043;-74
2022/12/18 12:43:42;;;;;;;1.42;0.65;;;0.50;88.90;;;;;;6211150;23;20008;-74
2022/12/18 12:46:12;;;;;;;1.40;0.70;;;0.50;88.90;;;;;;6182478;23;20005;-74
2022/12/18 12:48:46;;;;;;;0.88;0.52;;;0.50;88.90;;;;;;6179018;23;20011;-74
2022/12/18 12:51:18;;;;;;;1.38;0.90;;;0.40;88.80;;;;;;6213681;23;20001;-74
2022/12/18 12:53:44;;;;;;;;;;;0.50;88.90;;;;;;6187214;23;20011;-73
2022/12/18 12:56:13;;;;;;;1.38;0.60;;;0.50;88.90;;;;;;6214051;23;19903;-74
2022/12/18 12:59:04;;;;;;;1.08;0.68;;;0.60;88.90;;;;;;6188225;23;19997;-74
2022/12/18 13:01:54;;;;;;;1.10;0.60;;;0.50;88.90;;;;;;6241616;23;20020;-74
2022/12/18 13:04:44;;;;;;;1.20;0.57;;;0.50;88.90;;;;;;6243576;23;20062;-73
2022/12/18 13:07:16;;;;;;;1.80;0.90;;;0.50;88.90;;;;;;6243660;23;20000;-73
2022/12/18 13:10:14;;;;;;;2.03;0.80;;;0.60;88.90;;;;;;6244004;23;20301;-74
2022/12/18 13:13:00;;;;;;;2.10;1.20;;;0.50;88.80;;;;;;6215194;23;20008;-74